createdAt,value
2023-04-23T00:04:38.589Z,1003.4
2023-04-23T00:10:04.730Z,1003.4
2023-04-23T00:15:15.154Z,1003.4
2023-04-23T00:19:57.464Z,1003.5
2023-04-23T00:24:54.002Z,1003.4
2023-04-23T00:30:10.609Z,1003.5
2023-04-23T00:35:17.026Z,1003.5
2023-04-23T00:40:23.371Z,1003.4
2023-04-23T00:45:29.800Z,1003.3
2023-04-23T00:50:36.177Z,1003.3
2023-04-23T00:55:46.534Z,1003.3
2023-04-23T01:00:49.053Z,1003.3
2023-04-23T01:05:55.527Z,1003.3
2023-04-23T01:11:25.978Z,1003.4
2023-04-23T01:16:08.312Z,1003.2
2023-04-23T01:21:14.864Z,1003.3
2023-04-23T01:26:20.090Z,1003.4
2023-04-23T01:31:51.752Z,1003.4
2023-04-23T01:36:24.071Z,1003.3
2023-04-23T01:41:40.626Z,1003.3
2023-04-23T01:46:47.112Z,1003.4
2023-04-23T01:51:53.559Z,1003.4
2023-04-23T01:56:59.915Z,1003.4
2023-04-23T02:02:20.362Z,1003.2
2023-04-23T02:07:02.693Z,1003.4
2023-04-23T02:12:19.055Z,1003.3
2023-04-23T02:17:25.421Z,1003.3
2023-04-23T02:22:21.807Z,1003.3
2023-04-23T02:27:38.297Z,1003.4
2023-04-23T02:32:44.711Z,1003.4
2023-04-23T02:37:51.100Z,1003.3
2023-04-23T02:42:57.454Z,1003.4
2023-04-23T02:47:53.956Z,1003.4
2023-04-23T02:53:10.233Z,1003.3
2023-04-23T02:58:06.574Z,1003.2
2023-04-23T03:03:43.526Z,1003.2
2023-04-23T03:08:53.649Z,1003.3
2023-04-23T03:13:35.972Z,1003.2
2023-04-23T03:18:42.345Z,1003.2
2023-04-23T03:23:48.712Z,1003.0
2023-04-23T03:28:55.138Z,1002.9
2023-04-23T03:34:01.481Z,1003.0
2023-04-23T03:39:07.999Z,1002.9
2023-04-23T03:44:04.468Z,1002.9
2023-04-23T03:49:20.967Z,1002.8
2023-04-23T03:54:27.372Z,1002.8
2023-04-23T03:59:35.368Z,1002.9
2023-04-23T04:04:42.276Z,1002.8
2023-04-23T04:10:27.212Z,1002.9
2023-04-23T04:15:13.616Z,1002.8
2023-04-23T04:19:50.914Z,1002.8
2023-04-23T04:25:07.334Z,1002.8
2023-04-23T04:30:13.797Z,1002.8
2023-04-23T04:35:20.288Z,1002.9
2023-04-23T04:40:26.566Z,1002.7
2023-04-23T04:45:32.921Z,1002.7
2023-04-23T04:50:39.342Z,1002.6
2023-04-23T04:55:45.696Z,1002.8
2023-04-23T05:00:52.209Z,1002.7
2023-04-23T05:05:58.547Z,1002.8
2023-04-23T05:11:04.885Z,1002.8
2023-04-23T05:16:31.907Z,1002.7
2023-04-23T05:22:02.329Z,1002.8
2023-04-23T05:26:24.619Z,1002.8
2023-04-23T05:31:21.196Z,1002.8
2023-04-23T05:36:37.429Z,1002.8
2023-04-23T05:42:07.966Z,1002.8
2023-04-23T05:46:50.380Z,1002.6
2023-04-23T05:51:56.749Z,1002.7
2023-04-23T05:57:03.146Z,1002.6
2023-04-23T06:01:59.575Z,1002.6
2023-04-23T06:07:05.923Z,1002.5
2023-04-23T06:12:22.307Z,1002.4
2023-04-23T06:17:48.780Z,1002.5
2023-04-23T06:22:35.055Z,1002.4
2023-04-23T06:27:41.454Z,1002.4
2023-04-23T06:33:51.957Z,1002.3
2023-04-23T06:38:18.235Z,1002.3
2023-04-23T06:43:20.615Z,1002.5
2023-04-23T06:48:27.033Z,1002.3
2023-04-23T06:53:33.452Z,1002.3
2023-04-23T06:59:03.849Z,1002.3
2023-04-23T07:03:26.306Z,1002.2
2023-04-23T07:08:52.770Z,1002.1
2023-04-23T07:13:39.124Z,1002.0
2023-04-23T07:19:05.532Z,1002.0
2023-04-23T07:23:51.880Z,1002.1
2023-04-23T07:29:18.440Z,1002.0
2023-04-23T07:34:32.476Z,1002.0
2023-04-23T07:39:04.829Z,1002.0
2023-04-23T07:44:41.285Z,1002.0
2023-04-23T07:49:27.640Z,1001.9
2023-04-23T07:54:33.992Z,1001.8
2023-04-23T08:00:04.442Z,1001.7
2023-04-23T08:04:47.018Z,1001.7
2023-04-23T08:09:53.266Z,1001.6
2023-04-23T08:14:59.680Z,1001.6
2023-04-23T08:20:06.075Z,1001.7
2023-04-23T08:25:02.421Z,1001.5
2023-04-23T08:30:18.795Z,1001.5
2023-04-23T08:35:25.203Z,1001.4
2023-04-23T08:40:31.569Z,1001.3
2023-04-23T08:45:28.046Z,1001.3
2023-04-23T08:51:36.686Z,1001.2
2023-04-23T08:55:50.941Z,1001.2
2023-04-23T09:01:21.457Z,1001.2
2023-04-23T09:06:03.726Z,1001.1
2023-04-23T09:11:10.133Z,1001.0
2023-04-23T09:16:06.501Z,1001.1
2023-04-23T09:21:12.859Z,1000.9
2023-04-23T09:26:19.363Z,1000.8
2023-04-23T09:31:25.845Z,1000.8
2023-04-23T09:36:42.234Z,1000.5
2023-04-23T09:41:48.668Z,1000.7
2023-04-23T09:47:53.204Z,1000.7
2023-04-23T09:52:01.420Z,1000.8
2023-04-23T09:57:28.069Z,1000.8
2023-04-23T10:02:38.584Z,1000.6
2023-04-23T10:07:20.974Z,1000.4
2023-04-23T10:12:46.612Z,1000.6
2023-04-23T10:17:32.878Z,1000.4
2023-04-23T10:22:40.225Z,1000.5
2023-04-23T10:28:10.631Z,1000.7
2023-04-23T10:32:53.114Z,1000.5
2023-04-23T10:37:59.502Z,1000.3
2023-04-23T10:43:05.956Z,1000.4
2023-04-23T10:48:12.433Z,1000.5
2023-04-23T10:53:18.737Z,1000.4
2023-04-23T10:58:25.101Z,1000.4
2023-04-23T11:03:31.747Z,1000.3
2023-04-23T11:08:37.861Z,1000.3
2023-04-23T11:13:44.374Z,1000.5
2023-04-23T11:18:50.769Z,1000.3
2023-04-23T11:23:57.243Z,1000.3
2023-04-23T11:29:03.640Z,1000.3
2023-04-23T11:34:34.150Z,1000.2
2023-04-23T11:39:16.447Z,1000.1
2023-04-23T11:45:06.924Z,1000.0
2023-04-23T11:49:29.331Z,1000.0
2023-04-23T11:54:35.696Z,1000.0
2023-04-23T11:59:42.493Z,999.8
2023-04-23T12:04:48.501Z,999.8
2023-04-23T12:09:54.957Z,999.8
2023-04-23T12:14:51.283Z,999.7
2023-04-23T12:20:07.699Z,999.7
2023-04-23T12:25:14.133Z,999.7
2023-04-23T12:30:40.524Z,999.6
2023-04-23T12:35:50.923Z,999.6
2023-04-23T12:40:23.340Z,999.5
2023-04-23T12:46:03.875Z,999.5
2023-04-23T12:50:46.220Z,999.5
2023-04-23T12:55:52.634Z,999.5
2023-04-23T13:00:58.997Z,999.5
2023-04-23T13:06:05.363Z,999.3
2023-04-23T13:11:45.828Z,999.2
2023-04-23T13:16:18.277Z,999.2
2023-04-23T13:21:48.706Z,999.2
2023-04-23T13:27:05.153Z,999.1
2023-04-23T13:32:01.610Z,999.3
2023-04-23T13:36:43.816Z,999.4
2023-04-23T13:42:14.351Z,999.4
2023-04-23T13:47:40.884Z,999.2
2023-04-23T13:52:03.183Z,998.9
2023-04-23T13:57:09.557Z,998.6
2023-04-23T14:02:15.986Z,998.5
2023-04-23T14:07:22.334Z,998.7
2023-04-23T14:12:48.748Z,998.6
2023-04-23T14:17:35.137Z,998.1
2023-04-23T14:22:55.520Z,998.2
2023-04-23T14:28:07.893Z,998.1
2023-04-23T14:32:54.282Z,997.9
2023-04-23T14:38:00.612Z,997.9
2023-04-23T14:44:27.302Z,997.8
2023-04-23T14:48:33.604Z,997.7
2023-04-23T14:53:43.956Z,997.8
2023-04-23T14:58:26.297Z,997.6
2023-04-23T15:03:32.932Z,997.6
2023-04-23T15:08:39.190Z,997.5
2023-04-23T15:14:09.591Z,997.4
2023-04-23T15:18:50.927Z,997.4
2023-04-23T15:24:18.360Z,997.2
2023-04-23T15:29:04.697Z,997.2
2023-04-23T15:34:11.058Z,997.1
2023-04-23T15:39:17.478Z,997.1
2023-04-23T15:44:23.948Z,997.0
2023-04-23T15:49:30.329Z,997.0
2023-04-23T15:54:36.778Z,996.8
2023-04-23T16:00:07.239Z,996.9
2023-04-23T16:04:49.595Z,996.8
2023-04-23T16:09:45.925Z,996.8
2023-04-23T16:15:02.329Z,996.8
2023-04-23T16:20:08.737Z,996.7
2023-04-23T16:25:15.219Z,996.6
2023-04-23T16:30:11.591Z,996.6
2023-04-23T16:35:52.100Z,996.5
2023-04-23T16:40:24.358Z,996.6
2023-04-23T16:46:04.803Z,996.4
2023-04-23T16:50:37.128Z,996.5
2023-04-23T16:55:53.874Z,996.6
2023-04-23T17:01:00.425Z,996.9
2023-04-23T17:06:06.809Z,997.2
2023-04-23T17:11:13.206Z,997.4
2023-04-23T17:16:19.716Z,997.4
2023-04-23T17:21:25.983Z,997.5
2023-04-23T17:26:32.488Z,997.5
2023-04-23T17:31:38.975Z,997.5
2023-04-23T17:36:46.537Z,997.2
2023-04-23T17:41:52.962Z,997.1
2023-04-23T17:46:59.344Z,996.9
2023-04-23T17:52:05.739Z,996.8
2023-04-23T17:57:12.129Z,996.5
2023-04-23T18:02:18.620Z,996.5
2023-04-23T18:07:24.873Z,996.3
2023-04-23T18:12:32.404Z,996.2
2023-04-23T18:17:58.850Z,996.4
2023-04-23T18:22:45.258Z,996.2
2023-04-23T18:27:41.650Z,996.1
2023-04-23T18:32:48.097Z,996.3
2023-04-23T18:38:04.432Z,996.3
2023-04-23T18:43:10.864Z,996.4
2023-04-23T18:48:37.276Z,996.3
2023-04-23T18:53:52.311Z,996.3
2023-04-23T18:58:34.706Z,996.1
2023-04-23T19:03:41.164Z,996.3
2023-04-23T19:08:47.538Z,996.3
2023-04-23T19:13:53.957Z,996.4
2023-04-23T19:19:20.368Z,996.3
2023-04-23T19:23:56.702Z,996.2
2023-04-23T19:29:03.112Z,996.1
2023-04-23T19:34:19.497Z,995.9
2023-04-23T19:39:25.889Z,995.9
2023-04-23T19:44:22.266Z,995.9
2023-04-23T19:50:02.853Z,995.7
2023-04-23T19:55:09.239Z,995.7
2023-04-23T19:59:51.622Z,995.7
2023-04-23T20:04:57.961Z,995.6
2023-04-23T20:10:04.349Z,995.4
2023-04-23T20:15:10.747Z,995.4
2023-04-23T20:20:17.221Z,995.4
2023-04-23T20:25:25.598Z,995.2
2023-04-23T20:30:30.233Z,995.2
2023-04-23T20:35:36.577Z,995.2
2023-04-23T20:40:42.961Z,995.2
2023-04-23T20:46:28.466Z,995.1
2023-04-23T20:50:54.933Z,995.1
2023-04-23T20:56:02.323Z,995.1
2023-04-23T21:01:08.790Z,995.0
2023-04-23T21:06:05.126Z,994.9
2023-04-23T21:11:35.543Z,995.0
2023-04-23T21:16:17.901Z,994.8
2023-04-23T21:21:36.448Z,994.8
2023-04-23T21:26:32.817Z,994.9
2023-04-23T21:32:09.254Z,994.8
2023-04-23T21:36:55.606Z,994.8
2023-04-23T21:42:01.986Z,994.8
2023-04-23T21:47:46.529Z,994.7
2023-04-23T21:52:14.842Z,994.7
2023-04-23T21:57:41.233Z,994.7
2023-04-23T22:02:27.779Z,994.7
2023-04-23T22:07:38.030Z,994.7
2023-04-23T22:13:19.830Z,994.6
2023-04-23T22:17:35.841Z,994.6
2023-04-23T22:28:37.701Z,994.5
2023-04-23T22:33:06.049Z,994.6
2023-04-23T22:38:12.351Z,994.6
2023-04-23T22:43:32.747Z,994.7
2023-04-23T22:48:25.247Z,994.7
2023-04-23T22:54:15.698Z,994.6
2023-04-23T22:58:37.987Z,994.6
2023-04-23T23:03:34.507Z,994.6
2023-04-23T23:08:50.781Z,994.6
2023-04-23T23:13:57.163Z,994.6
2023-04-23T23:19:03.590Z,994.7
2023-04-23T23:24:09.949Z,994.6
2023-04-23T23:30:12.455Z,994.6
2023-04-23T23:34:22.763Z,994.6
2023-04-23T23:39:53.155Z,994.5
2023-04-23T23:44:25.468Z,994.5
2023-04-23T23:49:42.207Z,994.6
2023-04-23T23:55:12.295Z,994.6
